sensor_id;sensor_type;location;lat;lon;timestamp;pressure;altitude;pressure_sealevel;temperature;humidity
10881;BME280;5493;48.884;8.338;2023-04-07T00:00:37;100235.47;;;10.66;100.00
10881;BME280;5493;48.884;8.338;2023-04-07T00:03:04;100229.38;;;10.71;100.00
10881;BME280;5493;48.884;8.338;2023-04-07T00:05:31;100229.38;;;10.71;100.00
10881;BME280;5493;48.884;8.338;2023-04-07T00:07:58;100220.59;;;10.57;100.00
10881;BME280;5493;48.884;8.338;2023-04-07T00:10:26;100221.16;;;10.66;100.00
10881;BME280;5493;48.884;8.338;2023-04-07T00:12:52;100207.59;;;10.72;100.00
10881;BME280;5493;48.884;8.338;2023-04-07T00:15:19;100206.00;;;10.65;100.00
10881;BME280;5493;48.884;8.338;2023-04-07T00:17:46;100195.31;;;10.76;100.00
10881;BME280;5493;48.884;8.338;2023-04-07T00:20:12;100189.75;;;10.71;100.00
10881;BME280;5493;48.884;8.338;2023-04-07T00:22:39;100188.06;;;10.77;100.00
10881;BME280;5493;48.884;8.338;2023-04-07T00:25:06;100188.53;;;10.92;100.00
10881;BME280;5493;48.884;8.338;2023-04-07T00:27:34;100188.56;;;10.85;100.00
10881;BME280;5493;48.884;8.338;2023-04-07T00:30:01;100180.81;;;10.96;100.00
10881;BME280;5493;48.884;8.338;2023-04-07T00:32:27;100173.38;;;11.09;100.00
10881;BME280;5493;48.884;8.338;2023-04-07T00:34:54;100180.28;;;10.87;100.00
10881;BME280;5493;48.884;8.338;2023-04-07T00:37:20;100172.72;;;10.77;100.00
10881;BME280;5493;48.884;8.338;2023-04-07T00:39:47;100171.59;;;10.85;100.00
10881;BME280;5493;48.884;8.338;2023-04-07T00:42:15;100170.03;;;10.96;100.00
10881;BME280;5493;48.884;8.338;2023-04-07T00:44:43;100173.69;;;10.83;100.00
10881;BME280;5493;48.884;8.338;2023-04-07T00:47:10;100173.69;;;10.83;100.00
10881;BME280;5493;48.884;8.338;2023-04-07T00:49:36;100167.31;;;10.77;100.00
10881;BME280;5493;48.884;8.338;2023-04-07T00:52:03;100165.00;;;10.81;100.00
10881;BME280;5493;48.884;8.338;2023-04-07T00:54:30;100160.94;;;10.90;100.00
10881;BME280;5493;48.884;8.338;2023-04-07T00:56:57;100160.94;;;10.90;100.00
10881;BME280;5493;48.884;8.338;2023-04-07T00:59:24;100150.22;;;11.02;100.00
10881;BME280;5493;48.884;8.338;2023-04-07T01:02:01;100153.75;;;11.02;100.00
10881;BME280;5493;48.884;8.338;2023-04-07T01:04:32;100145.88;;;11.01;100.00
10881;BME280;5493;48.884;8.338;2023-04-07T01:07:03;100143.78;;;11.03;100.00
10881;BME280;5493;48.884;8.338;2023-04-07T01:09:36;100143.31;;;11.24;100.00
10881;BME280;5493;48.884;8.338;2023-04-07T01:12:09;100135.22;;;11.24;100.00
10881;BME280;5493;48.884;8.338;2023-04-07T01:14:40;100133.50;;;11.11;100.00
10881;BME280;5493;48.884;8.338;2023-04-07T01:17:09;100132.81;;;11.16;100.00
10881;BME280;5493;48.884;8.338;2023-04-07T01:19:39;100119.63;;;11.08;100.00
10881;BME280;5493;48.884;8.338;2023-04-07T01:22:11;100116.13;;;10.89;100.00
10881;BME280;5493;48.884;8.338;2023-04-07T01:24:57;100113.38;;;10.96;100.00
10881;BME280;5493;48.884;8.338;2023-04-07T01:27:34;100117.56;;;10.92;100.00
10881;BME280;5493;48.884;8.338;2023-04-07T01:30:06;100112.25;;;11.03;100.00
10881;BME280;5493;48.884;8.338;2023-04-07T01:32:35;100106.69;;;10.98;100.00
10881;BME280;5493;48.884;8.338;2023-04-07T01:35:03;100106.31;;;10.95;100.00
10881;BME280;5493;48.884;8.338;2023-04-07T01:37:31;100106.97;;;11.08;100.00
10881;BME280;5493;48.884;8.338;2023-04-07T01:39:58;100105.78;;;11.04;100.00
10881;BME280;5493;48.884;8.338;2023-04-07T01:42:25;100103.75;;;11.00;100.00
10881;BME280;5493;48.884;8.338;2023-04-07T01:44:52;100106.88;;;11.15;100.00
10881;BME280;5493;48.884;8.338;2023-04-07T01:47:21;100102.59;;;10.96;100.00
10881;BME280;5493;48.884;8.338;2023-04-07T01:49:49;100102.97;;;10.99;100.00
10881;BME280;5493;48.884;8.338;2023-04-07T01:52:16;100108.75;;;10.84;100.00
10881;BME280;5493;48.884;8.338;2023-04-07T01:54:43;100095.72;;;11.11;100.00
10881;BME280;5493;48.884;8.338;2023-04-07T01:57:10;100102.19;;;11.10;100.00
10881;BME280;5493;48.884;8.338;2023-04-07T01:59:37;100098.22;;;10.95;100.00
10881;BME280;5493;48.884;8.338;2023-04-07T02:02:03;100097.53;;;11.17;100.00
10881;BME280;5493;48.884;8.338;2023-04-07T02:04:34;100104.19;;;11.15;100.00
10881;BME280;5493;48.884;8.338;2023-04-07T02:07:08;100107.78;;;11.27;100.00
10881;BME280;5493;48.884;8.338;2023-04-07T02:09:37;100103.31;;;11.21;100.00
10881;BME280;5493;48.884;8.338;2023-04-07T02:12:07;100096.00;;;11.21;100.00
10881;BME280;5493;48.884;8.338;2023-04-07T02:14:34;100085.34;;;11.26;100.00
10881;BME280;5493;48.884;8.338;2023-04-07T02:17:03;100086.56;;;11.30;100.00
10881;BME280;5493;48.884;8.338;2023-04-07T02:19:31;100092.16;;;11.29;100.00
10881;BME280;5493;48.884;8.338;2023-04-07T02:22:01;100092.25;;;11.22;100.00
10881;BME280;5493;48.884;8.338;2023-04-07T02:24:28;100084.53;;;11.26;100.00
10881;BME280;5493;48.884;8.338;2023-04-07T02:26:55;100093.72;;;11.07;100.00
10881;BME280;5493;48.884;8.338;2023-04-07T02:29:21;100086.91;;;11.34;100.00
10881;BME280;5493;48.884;8.338;2023-04-07T02:31:48;100079.28;;;11.31;100.00
10881;BME280;5493;48.884;8.338;2023-04-07T02:34:14;100073.50;;;11.27;100.00
10881;BME280;5493;48.884;8.338;2023-04-07T02:36:42;100079.75;;;11.40;100.00
10881;BME280;5493;48.884;8.338;2023-04-07T02:39:09;100069.53;;;11.30;100.00
10881;BME280;5493;48.884;8.338;2023-04-07T02:41:35;100079.91;;;11.45;100.00
10881;BME280;5493;48.884;8.338;2023-04-07T02:44:02;100081.91;;;11.49;100.00
10881;BME280;5493;48.884;8.338;2023-04-07T02:46:28;100078.97;;;11.39;100.00
10881;BME280;5493;48.884;8.338;2023-04-07T02:48:55;100081.69;;;11.51;100.00
10881;BME280;5493;48.884;8.338;2023-04-07T02:51:21;100072.63;;;11.45;100.00
10881;BME280;5493;48.884;8.338;2023-04-07T02:53:49;100071.97;;;11.20;100.00
10881;BME280;5493;48.884;8.338;2023-04-07T02:56:16;100070.66;;;11.22;100.00
10881;BME280;5493;48.884;8.338;2023-04-07T02:58:42;100065.41;;;11.27;100.00
10881;BME280;5493;48.884;8.338;2023-04-07T03:01:09;100070.00;;;11.27;100.00
10881;BME280;5493;48.884;8.338;2023-04-07T03:03:35;100060.91;;;11.21;100.00
10881;BME280;5493;48.884;8.338;2023-04-07T03:06:03;100072.16;;;11.48;100.00
10881;BME280;5493;48.884;8.338;2023-04-07T03:08:30;100067.81;;;11.35;100.00
10881;BME280;5493;48.884;8.338;2023-04-07T03:10:58;100061.69;;;11.40;100.00
10881;BME280;5493;48.884;8.338;2023-04-07T03:13:24;100058.41;;;11.38;100.00
10881;BME280;5493;48.884;8.338;2023-04-07T03:15:52;100047.97;;;11.42;100.00
10881;BME280;5493;48.884;8.338;2023-04-07T03:18:18;100055.81;;;11.31;100.00
10881;BME280;5493;48.884;8.338;2023-04-07T03:20:47;100058.16;;;11.28;100.00
10881;BME280;5493;48.884;8.338;2023-04-07T03:23:13;100044.34;;;11.48;100.00
10881;BME280;5493;48.884;8.338;2023-04-07T03:25:40;100043.31;;;11.49;100.00
10881;BME280;5493;48.884;8.338;2023-04-07T03:28:08;100047.03;;;11.48;100.00
10881;BME280;5493;48.884;8.338;2023-04-07T03:30:35;100039.19;;;11.46;100.00
10881;BME280;5493;48.884;8.338;2023-04-07T03:33:02;100049.72;;;11.36;100.00
10881;BME280;5493;48.884;8.338;2023-04-07T03:35:28;100052.41;;;11.36;100.00
10881;BME280;5493;48.884;8.338;2023-04-07T03:37:55;100054.09;;;10.89;100.00
10881;BME280;5493;48.884;8.338;2023-04-07T03:40:21;100055.19;;;10.52;100.00
10881;BME280;5493;48.884;8.338;2023-04-07T03:42:48;100054.91;;;10.60;100.00
10881;BME280;5493;48.884;8.338;2023-04-07T03:45:16;100052.63;;;10.75;100.00
10881;BME280;5493;48.884;8.338;2023-04-07T03:47:42;100051.94;;;10.79;100.00
10881;BME280;5493;48.884;8.338;2023-04-07T03:50:09;100047.75;;;10.83;100.00
10881;BME280;5493;48.884;8.338;2023-04-07T03:52:36;100060.19;;;10.84;100.00
10881;BME280;5493;48.884;8.338;2023-04-07T03:55:03;100055.31;;;10.75;100.00
10881;BME280;5493;48.884;8.338;2023-04-07T03:57:29;100056.59;;;10.72;100.00
10881;BME280;5493;48.884;8.338;2023-04-07T03:59:56;100052.94;;;10.67;100.00
10881;BME280;5493;48.884;8.338;2023-04-07T04:02:23;100057.94;;;10.81;100.00
10881;BME280;5493;48.884;8.338;2023-04-07T04:04:50;100055.94;;;10.77;100.00
10881;BME280;5493;48.884;8.338;2023-04-07T04:07:16;100053.81;;;10.79;100.00
10881;BME280;5493;48.884;8.338;2023-04-07T04:09:43;100055.66;;;10.67;100.00
10881;BME280;5493;48.884;8.338;2023-04-07T04:12:10;100054.00;;;10.48;100.00
10881;BME280;5493;48.884;8.338;2023-04-07T04:14:36;100042.91;;;10.38;100.00
10881;BME280;5493;48.884;8.338;2023-04-07T04:17:03;100043.41;;;10.28;100.00
10881;BME280;5493;48.884;8.338;2023-04-07T04:19:30;100044.38;;;10.15;100.00
10881;BME280;5493;48.884;8.338;2023-04-07T04:21:57;100046.03;;;10.16;100.00
10881;BME280;5493;48.884;8.338;2023-04-07T04:24:23;100046.88;;;10.10;100.00
10881;BME280;5493;48.884;8.338;2023-04-07T04:26:50;100051.28;;;10.05;100.00
10881;BME280;5493;48.884;8.338;2023-04-07T04:29:16;100057.56;;;9.74;100.00
10881;BME280;5493;48.884;8.338;2023-04-07T04:31:43;100056.78;;;9.92;100.00
10881;BME280;5493;48.884;8.338;2023-04-07T04:34:09;100051.16;;;9.75;100.00
10881;BME280;5493;48.884;8.338;2023-04-07T04:36:37;100064.78;;;9.49;100.00
10881;BME280;5493;48.884;8.338;2023-04-07T04:39:04;100066.72;;;9.42;100.00
10881;BME280;5493;48.884;8.338;2023-04-07T04:41:31;100070.44;;;9.40;100.00
10881;BME280;5493;48.884;8.338;2023-04-07T04:43:57;100066.16;;;9.33;100.00
10881;BME280;5493;48.884;8.338;2023-04-07T04:46:24;100065.38;;;9.26;100.00
10881;BME280;5493;48.884;8.338;2023-04-07T04:48:51;100069.34;;;9.17;100.00
10881;BME280;5493;48.884;8.338;2023-04-07T04:51:18;100060.53;;;9.34;100.00
10881;BME280;5493;48.884;8.338;2023-04-07T04:53:46;100066.81;;;9.28;100.00
10881;BME280;5493;48.884;8.338;2023-04-07T04:56:12;100067.34;;;9.37;100.00
10881;BME280;5493;48.884;8.338;2023-04-07T04:58:40;100073.56;;;9.37;100.00
10881;BME280;5493;48.884;8.338;2023-04-07T05:01:10;100071.75;;;9.31;100.00
10881;BME280;5493;48.884;8.338;2023-04-07T05:03:37;100074.63;;;9.36;100.00
10881;BME280;5493;48.884;8.338;2023-04-07T05:06:04;100073.13;;;9.40;100.00
10881;BME280;5493;48.884;8.338;2023-04-07T05:08:31;100076.84;;;9.71;100.00
10881;BME280;5493;48.884;8.338;2023-04-07T05:10:59;100068.91;;;9.82;100.00
10881;BME280;5493;48.884;8.338;2023-04-07T05:13:25;100075.75;;;9.54;100.00
10881;BME280;5493;48.884;8.338;2023-04-07T05:15:54;100071.41;;;9.53;100.00
10881;BME280;5493;48.884;8.338;2023-04-07T05:18:21;100067.66;;;9.54;100.00
10881;BME280;5493;48.884;8.338;2023-04-07T05:20:48;100079.16;;;9.67;100.00
10881;BME280;5493;48.884;8.338;2023-04-07T05:23:15;100070.16;;;9.80;100.00
10881;BME280;5493;48.884;8.338;2023-04-07T05:25:41;100076.41;;;9.74;100.00
10881;BME280;5493;48.884;8.338;2023-04-07T05:28:09;100071.47;;;9.71;100.00
10881;BME280;5493;48.884;8.338;2023-04-07T05:30:35;100075.81;;;9.97;100.00
10881;BME280;5493;48.884;8.338;2023-04-07T05:33:02;100072.09;;;9.98;100.00
10881;BME280;5493;48.884;8.338;2023-04-07T05:35:28;100079.44;;;10.09;100.00
10881;BME280;5493;48.884;8.338;2023-04-07T05:37:55;100083.06;;;9.96;100.00
10881;BME280;5493;48.884;8.338;2023-04-07T05:40:22;100080.69;;;10.06;100.00
10881;BME280;5493;48.884;8.338;2023-04-07T05:42:48;100084.22;;;10.07;100.00
10881;BME280;5493;48.884;8.338;2023-04-07T05:45:16;100086.91;;;10.07;100.00
10881;BME280;5493;48.884;8.338;2023-04-07T05:47:43;100079.28;;;10.04;100.00
10881;BME280;5493;48.884;8.338;2023-04-07T05:50:11;100079.09;;;9.99;100.00
10881;BME280;5493;48.884;8.338;2023-04-07T05:52:38;100080.16;;;9.98;100.00
10881;BME280;5493;48.884;8.338;2023-04-07T05:55:05;100071.00;;;9.99;100.00
10881;BME280;5493;48.884;8.338;2023-04-07T05:57:32;100068.50;;;10.04;100.00
10881;BME280;5493;48.884;8.338;2023-04-07T05:59:59;100068.00;;;10.38;100.00
10881;BME280;5493;48.884;8.338;2023-04-07T06:02:27;100075.31;;;10.67;100.00
10881;BME280;5493;48.884;8.338;2023-04-07T06:04:53;100072.75;;;10.91;100.00
10881;BME280;5493;48.884;8.338;2023-04-07T06:07:20;100063.84;;;10.90;100.00
10881;BME280;5493;48.884;8.338;2023-04-07T06:09:46;100063.63;;;11.21;100.00
10881;BME280;5493;48.884;8.338;2023-04-07T06:12:13;100053.44;;;11.23;100.00
10881;BME280;5493;48.884;8.338;2023-04-07T06:14:41;100059.47;;;11.37;100.00
10881;BME280;5493;48.884;8.338;2023-04-07T06:17:07;100050.41;;;11.31;100.00
10881;BME280;5493;48.884;8.338;2023-04-07T06:19:35;100048.47;;;11.62;100.00
10881;BME280;5493;48.884;8.338;2023-04-07T06:22:02;100051.94;;;11.80;100.00
10881;BME280;5493;48.884;8.338;2023-04-07T06:24:28;100059.47;;;11.78;100.00
10881;BME280;5493;48.884;8.338;2023-04-07T06:26:55;100061.59;;;11.88;100.00
10881;BME280;5493;48.884;8.338;2023-04-07T06:29:21;100055.13;;;11.77;100.00
10881;BME280;5493;48.884;8.338;2023-04-07T06:31:48;100057.03;;;11.89;100.00
10881;BME280;5493;48.884;8.338;2023-04-07T06:34:15;100051.97;;;12.04;100.00
10881;BME280;5493;48.884;8.338;2023-04-07T06:36:43;100058.19;;;11.93;100.00
10881;BME280;5493;48.884;8.338;2023-04-07T06:39:10;100063.38;;;12.06;100.00
10881;BME280;5493;48.884;8.338;2023-04-07T06:41:36;100060.91;;;12.16;100.00
10881;BME280;5493;48.884;8.338;2023-04-07T06:44:03;100065.25;;;12.40;100.00
10881;BME280;5493;48.884;8.338;2023-04-07T06:46:30;100063.47;;;12.34;100.00
10881;BME280;5493;48.884;8.338;2023-04-07T06:48:56;100063.94;;;12.54;100.00
10881;BME280;5493;48.884;8.338;2023-04-07T06:51:23;100064.72;;;12.66;100.00
10881;BME280;5493;48.884;8.338;2023-04-07T06:53:52;100066.28;;;12.62;100.00
10881;BME280;5493;48.884;8.338;2023-04-07T06:56:19;100066.88;;;12.53;100.00
10881;BME280;5493;48.884;8.338;2023-04-07T06:58:46;100073.44;;;12.68;100.00
10881;BME280;5493;48.884;8.338;2023-04-07T07:01:12;100072.25;;;12.76;100.00
10881;BME280;5493;48.884;8.338;2023-04-07T07:03:39;100067.09;;;13.03;100.00
10881;BME280;5493;48.884;8.338;2023-04-07T07:06:06;100063.66;;;13.07;100.00
10881;BME280;5493;48.884;8.338;2023-04-07T07:08:32;100071.63;;;13.25;100.00
10881;BME280;5493;48.884;8.338;2023-04-07T07:11:00;100072.59;;;13.19;100.00
10881;BME280;5493;48.884;8.338;2023-04-07T07:13:27;100069.16;;;12.84;100.00
10881;BME280;5493;48.884;8.338;2023-04-07T07:15:54;100074.59;;;12.84;100.00
10881;BME280;5493;48.884;8.338;2023-04-07T07:18:21;100076.03;;;13.03;100.00
10881;BME280;5493;48.884;8.338;2023-04-07T07:20:47;100085.09;;;13.09;100.00
10881;BME280;5493;48.884;8.338;2023-04-07T07:23:14;100078.66;;;12.98;100.00
10881;BME280;5493;48.884;8.338;2023-04-07T07:25:41;100076.16;;;13.08;100.00
10881;BME280;5493;48.884;8.338;2023-04-07T07:28:09;100081.94;;;13.00;100.00
10881;BME280;5493;48.884;8.338;2023-04-07T07:30:38;100085.94;;;12.98;100.00
10881;BME280;5493;48.884;8.338;2023-04-07T07:33:05;100082.63;;;12.96;100.00
10881;BME280;5493;48.884;8.338;2023-04-07T07:35:31;100081.78;;;13.07;100.00
10881;BME280;5493;48.884;8.338;2023-04-07T07:38:00;100071.41;;;13.44;100.00
10881;BME280;5493;48.884;8.338;2023-04-07T07:40:26;100079.19;;;13.23;100.00
10881;BME280;5493;48.884;8.338;2023-04-07T07:42:53;100080.03;;;13.41;100.00
10881;BME280;5493;48.884;8.338;2023-04-07T07:45:20;100082.63;;;13.36;100.00
10881;BME280;5493;48.884;8.338;2023-04-07T07:47:47;100085.19;;;13.42;100.00
10881;BME280;5493;48.884;8.338;2023-04-07T07:50:14;100087.22;;;13.63;100.00
10881;BME280;5493;48.884;8.338;2023-04-07T07:52:40;100087.41;;;13.73;100.00
10881;BME280;5493;48.884;8.338;2023-04-07T07:55:07;100087.34;;;13.85;100.00
10881;BME280;5493;48.884;8.338;2023-04-07T07:57:34;100089.56;;;13.43;100.00
10881;BME280;5493;48.884;8.338;2023-04-07T08:00:01;100094.53;;;13.63;100.00
10881;BME280;5493;48.884;8.338;2023-04-07T08:02:29;100099.78;;;13.69;100.00
10881;BME280;5493;48.884;8.338;2023-04-07T08:04:58;100101.41;;;13.54;100.00
10881;BME280;5493;48.884;8.338;2023-04-07T08:07:25;100096.94;;;13.31;100.00
10881;BME280;5493;48.884;8.338;2023-04-07T08:09:52;100094.53;;;13.63;100.00
10881;BME280;5493;48.884;8.338;2023-04-07T08:12:20;100101.22;;;14.05;100.00
10881;BME280;5493;48.884;8.338;2023-04-07T08:14:47;100101.78;;;13.91;100.00
10881;BME280;5493;48.884;8.338;2023-04-07T08:17:14;100105.97;;;14.15;100.00
10881;BME280;5493;48.884;8.338;2023-04-07T08:19:42;100102.03;;;14.39;100.00
10881;BME280;5493;48.884;8.338;2023-04-07T08:22:09;100107.03;;;14.30;100.00
10881;BME280;5493;48.884;8.338;2023-04-07T08:24:35;100104.25;;;14.42;100.00
10881;BME280;5493;48.884;8.338;2023-04-07T08:27:02;100112.56;;;14.74;100.00
10881;BME280;5493;48.884;8.338;2023-04-07T08:29:28;100112.72;;;14.46;100.00
10881;BME280;5493;48.884;8.338;2023-04-07T08:31:55;100103.94;;;14.99;100.00
10881;BME280;5493;48.884;8.338;2023-04-07T08:34:21;100113.59;;;15.11;100.00
10881;BME280;5493;48.884;8.338;2023-04-07T08:36:49;100107.66;;;15.14;100.00
10881;BME280;5493;48.884;8.338;2023-04-07T08:39:16;100105.56;;;15.21;100.00
10881;BME280;5493;48.884;8.338;2023-04-07T08:41:44;100116.94;;;14.97;100.00
10881;BME280;5493;48.884;8.338;2023-04-07T08:44:14;100113.75;;;14.83;100.00
10881;BME280;5493;48.884;8.338;2023-04-07T08:46:40;100110.66;;;14.53;100.00
10881;BME280;5493;48.884;8.338;2023-04-07T08:49:09;100119.25;;;14.33;100.00
10881;BME280;5493;48.884;8.338;2023-04-07T08:51:43;100123.06;;;13.99;100.00
10881;BME280;5493;48.884;8.338;2023-04-07T08:54:13;100121.31;;;13.93;100.00
10881;BME280;5493;48.884;8.338;2023-04-07T08:56:41;100116.50;;;13.95;100.00
10881;BME280;5493;48.884;8.338;2023-04-07T08:59:09;100118.44;;;13.82;100.00
10881;BME280;5493;48.884;8.338;2023-04-07T09:01:36;100123.94;;;13.88;100.00
10881;BME280;5493;48.884;8.338;2023-04-07T09:04:03;100127.00;;;13.74;100.00
10881;BME280;5493;48.884;8.338;2023-04-07T09:06:32;100123.78;;;13.49;100.00
10881;BME280;5493;48.884;8.338;2023-04-07T09:08:58;100128.91;;;13.62;100.00
10881;BME280;5493;48.884;8.338;2023-04-07T09:11:27;100132.63;;;13.56;100.00
10881;BME280;5493;48.884;8.338;2023-04-07T09:13:54;100137.13;;;13.67;100.00
10881;BME280;5493;48.884;8.338;2023-04-07T09:16:21;100131.66;;;13.79;100.00
10881;BME280;5493;48.884;8.338;2023-04-07T09:18:49;100131.13;;;14.10;100.00
10881;BME280;5493;48.884;8.338;2023-04-07T09:21:15;100121.63;;;13.79;100.00
10881;BME280;5493;48.884;8.338;2023-04-07T09:23:42;100136.75;;;13.19;100.00
10881;BME280;5493;48.884;8.338;2023-04-07T09:26:20;100132.47;;;13.63;100.00
10881;BME280;5493;48.884;8.338;2023-04-07T09:28:51;100132.59;;;13.28;100.00
10881;BME280;5493;48.884;8.338;2023-04-07T09:31:19;100138.38;;;13.60;100.00
10881;BME280;5493;48.884;8.338;2023-04-07T09:33:47;100140.78;;;13.45;100.00
10881;BME280;5493;48.884;8.338;2023-04-07T09:36:13;100138.31;;;13.43;100.00
10881;BME280;5493;48.884;8.338;2023-04-07T09:38:42;100135.84;;;13.70;100.00
10881;BME280;5493;48.884;8.338;2023-04-07T09:41:09;100144.41;;;13.50;100.00
10881;BME280;5493;48.884;8.338;2023-04-07T09:43:37;100145.03;;;13.69;100.00
10881;BME280;5493;48.884;8.338;2023-04-07T09:46:12;100143.88;;;13.37;100.00
10881;BME280;5493;48.884;8.338;2023-04-07T09:48:40;100147.91;;;13.79;100.00
10881;BME280;5493;48.884;8.338;2023-04-07T09:51:09;100150.28;;;13.75;100.00
10881;BME280;5493;48.884;8.338;2023-04-07T09:53:43;100144.97;;;13.97;100.00
10881;BME280;5493;48.884;8.338;2023-04-07T09:56:12;100148.56;;;13.69;100.00
10881;BME280;5493;48.884;8.338;2023-04-07T09:58:40;100153.00;;;13.75;100.00
10881;BME280;5493;48.884;8.338;2023-04-07T10:01:10;100149.13;;;14.00;100.00
10881;BME280;5493;48.884;8.338;2023-04-07T10:03:38;100135.16;;;13.63;100.00
10881;BME280;5493;48.884;8.338;2023-04-07T10:06:05;100143.47;;;14.35;100.00
10881;BME280;5493;48.884;8.338;2023-04-07T10:08:34;100146.00;;;14.96;100.00
10881;BME280;5493;48.884;8.338;2023-04-07T10:11:01;100141.84;;;15.81;100.00
10881;BME280;5493;48.884;8.338;2023-04-07T10:13:29;100137.94;;;16.72;100.00
10881;BME280;5493;48.884;8.338;2023-04-07T10:15:57;100146.56;;;17.06;100.00
10881;BME280;5493;48.884;8.338;2023-04-07T10:18:28;100143.09;;;16.68;100.00
10881;BME280;5493;48.884;8.338;2023-04-07T10:20:56;100139.63;;;17.45;100.00
10881;BME280;5493;48.884;8.338;2023-04-07T10:23:30;100139.22;;;17.06;100.00
10881;BME280;5493;48.884;8.338;2023-04-07T10:25:58;100134.53;;;17.59;100.00
10881;BME280;5493;48.884;8.338;2023-04-07T10:28:29;100136.38;;;17.48;100.00
10881;BME280;5493;48.884;8.338;2023-04-07T10:30:56;100129.91;;;16.97;100.00
10881;BME280;5493;48.884;8.338;2023-04-07T10:33:47;100137.28;;;17.02;100.00
10881;BME280;5493;48.884;8.338;2023-04-07T10:36:16;100141.03;;;17.53;100.00
10881;BME280;5493;48.884;8.338;2023-04-07T10:41:43;100140.38;;;16.68;100.00
10881;BME280;5493;48.884;8.338;2023-04-07T10:44:45;100136.94;;;17.50;100.00
10881;BME280;5493;48.884;8.338;2023-04-07T10:47:12;100132.13;;;17.83;100.00
10881;BME280;5493;48.884;8.338;2023-04-07T10:50:17;100137.31;;;18.40;97.99
10881;BME280;5493;48.884;8.338;2023-04-07T10:52:44;100137.56;;;17.88;100.00
10881;BME280;5493;48.884;8.338;2023-04-07T10:55:32;100139.38;;;17.47;100.00
10881;BME280;5493;48.884;8.338;2023-04-07T10:58:16;100139.47;;;17.77;100.00
10881;BME280;5493;48.884;8.338;2023-04-07T11:01:20;100133.22;;;18.07;95.72
10881;BME280;5493;48.884;8.338;2023-04-07T11:03:58;100136.47;;;18.80;92.04
10881;BME280;5493;48.884;8.338;2023-04-07T11:06:25;100126.66;;;18.38;95.19
10881;BME280;5493;48.884;8.338;2023-04-07T11:08:52;100132.13;;;18.28;96.58
10881;BME280;5493;48.884;8.338;2023-04-07T11:11:34;100120.13;;;17.89;97.13
10881;BME280;5493;48.884;8.338;2023-04-07T11:14:02;100128.31;;;17.89;98.82
10881;BME280;5493;48.884;8.338;2023-04-07T11:16:41;100126.66;;;17.83;94.71
10881;BME280;5493;48.884;8.338;2023-04-07T11:19:09;100120.00;;;17.48;100.00
10881;BME280;5493;48.884;8.338;2023-04-07T11:21:36;100123.94;;;18.48;99.79
10881;BME280;5493;48.884;8.338;2023-04-07T11:24:03;100124.22;;;18.06;95.63
10881;BME280;5493;48.884;8.338;2023-04-07T11:26:36;100128.31;;;18.39;94.19
10881;BME280;5493;48.884;8.338;2023-04-07T11:29:03;100127.72;;;18.78;93.83
10881;BME280;5493;48.884;8.338;2023-04-07T11:31:30;100120.25;;;19.08;92.52
10881;BME280;5493;48.884;8.338;2023-04-07T11:33:59;100126.06;;;19.51;85.31
10881;BME280;5493;48.884;8.338;2023-04-07T11:36:28;100127.00;;;19.80;82.30
10881;BME280;5493;48.884;8.338;2023-04-07T11:38:56;100119.16;;;18.99;90.09
10881;BME280;5493;48.884;8.338;2023-04-07T11:41:24;100130.97;;;18.95;91.66
10881;BME280;5493;48.884;8.338;2023-04-07T11:44:08;100126.25;;;19.64;88.50
10881;BME280;5493;48.884;8.338;2023-04-07T11:46:35;100122.72;;;19.64;90.24
10881;BME280;5493;48.884;8.338;2023-04-07T11:49:12;100133.03;;;19.23;85.01
10881;BME280;5493;48.884;8.338;2023-04-07T11:51:41;100122.88;;;19.29;85.32
10881;BME280;5493;48.884;8.338;2023-04-07T11:54:09;100130.88;;;19.69;89.29
10881;BME280;5493;48.884;8.338;2023-04-07T11:56:44;100129.94;;;19.40;82.48
10881;BME280;5493;48.884;8.338;2023-04-07T11:59:21;100136.91;;;19.12;84.80
10881;BME280;5493;48.884;8.338;2023-04-07T12:01:48;100128.84;;;19.41;88.57
10881;BME280;5493;48.884;8.338;2023-04-07T12:04:17;100131.75;;;20.03;81.66
10881;BME280;5493;48.884;8.338;2023-04-07T12:06:45;100131.44;;;19.17;84.27
10881;BME280;5493;48.884;8.338;2023-04-07T12:09:26;100129.13;;;18.55;87.55
10881;BME280;5493;48.884;8.338;2023-04-07T12:11:54;100125.97;;;19.07;89.25
10881;BME280;5493;48.884;8.338;2023-04-07T12:14:21;100130.13;;;18.94;86.77
10881;BME280;5493;48.884;8.338;2023-04-07T12:16:48;100118.75;;;19.36;89.39
10881;BME280;5493;48.884;8.338;2023-04-07T12:19:16;100111.88;;;19.88;86.79
10881;BME280;5493;48.884;8.338;2023-04-07T12:21:42;100114.19;;;19.71;87.21
10881;BME280;5493;48.884;8.338;2023-04-07T12:24:09;100118.44;;;19.87;85.38
10881;BME280;5493;48.884;8.338;2023-04-07T12:26:35;100107.97;;;19.60;82.91
10881;BME280;5493;48.884;8.338;2023-04-07T12:29:02;100113.13;;;19.12;82.18
10881;BME280;5493;48.884;8.338;2023-04-07T12:31:29;100122.69;;;19.69;80.11
10881;BME280;5493;48.884;8.338;2023-04-07T12:33:56;100112.56;;;19.10;85.40
10881;BME280;5493;48.884;8.338;2023-04-07T12:36:24;100119.09;;;19.20;89.14
10881;BME280;5493;48.884;8.338;2023-04-07T12:38:51;100126.13;;;18.61;88.07
10881;BME280;5493;48.884;8.338;2023-04-07T12:41:18;100117.38;;;18.44;89.16
10881;BME280;5493;48.884;8.338;2023-04-07T12:43:45;100139.47;;;17.05;100.00
10881;BME280;5493;48.884;8.338;2023-04-07T12:46:11;100134.41;;;17.34;100.00
10881;BME280;5493;48.884;8.338;2023-04-07T12:48:38;100137.59;;;17.10;100.00
10881;BME280;5493;48.884;8.338;2023-04-07T12:51:05;100126.09;;;16.51;100.00
10881;BME280;5493;48.884;8.338;2023-04-07T12:53:33;100145.91;;;16.47;100.00
10881;BME280;5493;48.884;8.338;2023-04-07T12:55:59;100145.22;;;16.56;100.00
10881;BME280;5493;48.884;8.338;2023-04-07T12:58:26;100154.47;;;16.23;100.00
10881;BME280;5493;48.884;8.338;2023-04-07T13:00:52;100138.28;;;16.44;100.00